createdAt,value
2023-03-26T00:02:47.322Z,96653.88
2023-03-26T00:07:49.028Z,96644.88
2023-03-26T00:12:51.495Z,96634.78
2023-03-26T00:17:54.246Z,96638.59
2023-03-26T00:22:56.134Z,96654.41
2023-03-26T00:27:58.485Z,96650.91
2023-03-26T00:33:00.288Z,96654.44
2023-03-26T00:38:03.229Z,96655.56
2023-03-26T00:43:18.431Z,96647.38
2023-03-26T00:48:24.592Z,96653.91
2023-03-26T00:53:33.457Z,96644.06
2023-03-26T00:58:35.717Z,96634.78
2023-03-26T01:03:38.591Z,96632.06
2023-03-26T01:08:46.740Z,96641.88
2023-03-26T01:14:12.979Z,96645.44
2023-03-26T01:19:21.152Z,96666.47
2023-03-26T01:24:23.190Z,96665.34
2023-03-26T01:29:45.264Z,96671.09
2023-03-26T01:35:18.970Z,96651.66
2023-03-26T01:40:42.849Z,96630.38
2023-03-26T01:45:47.693Z,96622.22
2023-03-26T01:50:53.467Z,96626.31
2023-03-26T01:56:06.099Z,96610.19
2023-03-26T02:01:13.967Z,96596.56
2023-03-26T02:06:17.886Z,96590.56
2023-03-26T02:11:20.101Z,96590.00
2023-03-26T02:16:22.199Z,96591.13
2023-03-26T02:21:26.111Z,96585.66
2023-03-26T02:26:30.912Z,96579.91
2023-03-26T02:31:43.302Z,96571.97
2023-03-26T02:36:45.008Z,96570.88
2023-03-26T02:41:46.739Z,96548.50
2023-03-26T02:46:48.543Z,96558.59
2023-03-26T02:52:18.498Z,96555.06
2023-03-26T02:57:23.415Z,96535.69
2023-03-26T03:02:47.986Z,96550.69
2023-03-26T03:08:05.894Z,96540.31
2023-03-26T03:13:10.215Z,96529.41
2023-03-26T03:18:11.975Z,96527.25
2023-03-26T03:23:14.013Z,96518.25
2023-03-26T03:28:18.269Z,96504.31
2023-03-26T03:33:20.728Z,96508.41
2023-03-26T03:38:22.894Z,96495.03
2023-03-26T03:43:27.489Z,96492.84
2023-03-26T03:48:50.319Z,96480.84
2023-03-26T03:53:57.440Z,96481.41
2023-03-26T03:59:10.211Z,96477.56
2023-03-26T04:04:13.059Z,96482.47
2023-03-26T04:09:26.297Z,96473.78
2023-03-26T04:14:31.225Z,96470.50
2023-03-26T04:19:44.077Z,96470.78
2023-03-26T04:24:49.702Z,96480.84
2023-03-26T04:30:06.250Z,96475.94
2023-03-26T04:35:14.112Z,96457.13
2023-03-26T04:40:21.906Z,96459.28
2023-03-26T04:45:36.716Z,96457.94
2023-03-26T04:50:38.514Z,96457.38
2023-03-26T04:55:51.087Z,96462.03
2023-03-26T05:01:10.374Z,96452.47
2023-03-26T05:06:17.737Z,96447.31
2023-03-26T05:11:19.949Z,96440.75
2023-03-26T05:16:22.466Z,96427.97
2023-03-26T05:21:30.738Z,96421.69
2023-03-26T05:26:33.885Z,96402.84
2023-03-26T05:31:35.820Z,96398.47
2023-03-26T05:36:38.469Z,96407.75
2023-03-26T05:42:03.225Z,96399.03
2023-03-26T05:47:19.675Z,96373.94
2023-03-26T05:52:21.568Z,96364.38
2023-03-26T05:57:42.544Z,96346.09
2023-03-26T06:03:02.990Z,96359.22
2023-03-26T06:08:33.794Z,96352.13
2023-03-26T06:13:35.729Z,96354.25
2023-03-26T06:18:38.474Z,96346.34
2023-03-26T06:23:52.652Z,96340.59
2023-03-26T06:29:15.603Z,96333.72
2023-03-26T06:34:32.693Z,96318.41
2023-03-26T06:39:34.385Z,96307.22
2023-03-26T06:44:56.335Z,96311.03
2023-03-26T06:50:11.827Z,96310.44
2023-03-26T06:55:39.748Z,96306.84
2023-03-26T07:00:54.765Z,96298.59
2023-03-26T07:06:35.273Z,96303.22
2023-03-26T07:11:57.394Z,96288.41
2023-03-26T07:17:17.892Z,96281.25
2023-03-26T07:22:28.989Z,96270.81
2023-03-26T07:27:57.596Z,96265.84
2023-03-26T07:33:25.731Z,96257.03
2023-03-26T07:39:08.500Z,96239.47
2023-03-26T07:44:38.900Z,96231.25
2023-03-26T07:49:59.788Z,96219.75
2023-03-26T07:55:20.520Z,96214.75
2023-03-26T08:00:52.229Z,96209.81
2023-03-26T08:06:11.755Z,96192.59
2023-03-26T08:11:38.785Z,96191.25
2023-03-26T08:16:50.901Z,96183.91
2023-03-26T08:21:55.907Z,96192.41
2023-03-26T08:27:13.809Z,96173.28
2023-03-26T08:32:18.763Z,96165.66
2023-03-26T08:37:20.595Z,96158.03
2023-03-26T08:42:48.130Z,96166.22
2023-03-26T08:48:41.610Z,96150.41
2023-03-26T08:53:59.516Z,96123.13
2023-03-26T08:59:19.667Z,96107.88
2023-03-26T09:04:59.212Z,96096.44
2023-03-26T09:10:26.157Z,96099.97
2023-03-26T09:15:42.848Z,96109.56
2023-03-26T09:20:54.424Z,96117.22
2023-03-26T09:26:31.976Z,96100.50
2023-03-26T09:31:47.652Z,96098.53
2023-03-26T09:37:02.672Z,96101.78
2023-03-26T09:42:30.815Z,96096.31
2023-03-26T09:47:54.949Z,96089.31
2023-03-26T09:53:20.323Z,96087.25
2023-03-26T09:58:52.013Z,96077.97
2023-03-26T10:04:07.572Z,96084.00
2023-03-26T10:09:44.791Z,96071.94
2023-03-26T10:15:09.594Z,96086.16
2023-03-26T10:20:38.082Z,96069.06
2023-03-26T10:26:21.311Z,96066.72
2023-03-26T10:31:41.668Z,96065.75
2023-03-26T10:37:16.131Z,96060.41
2023-03-26T10:42:40.716Z,96054.94
2023-03-26T10:48:19.569Z,96040.44
2023-03-26T10:53:47.101Z,96055.66
2023-03-26T10:58:50.151Z,96064.41
2023-03-26T11:03:58.565Z,96060.22
2023-03-26T11:09:35.972Z,96067.78
2023-03-26T11:15:14.710Z,96064.44
2023-03-26T11:20:48.637Z,96035.75
2023-03-26T11:26:05.994Z,96020.72
2023-03-26T11:31:40.251Z,96020.13
2023-03-26T11:36:48.749Z,96013.09
2023-03-26T11:41:55.155Z,96008.22
2023-03-26T11:47:10.019Z,96002.09
2023-03-26T11:52:12.242Z,95993.72
2023-03-26T11:57:21.527Z,95988.78
2023-03-26T12:02:29.193Z,95972.56
2023-03-26T12:07:35.048Z,95960.75
2023-03-26T12:12:39.377Z,95943.94
2023-03-26T12:17:42.282Z,95937.00
2023-03-26T12:22:49.145Z,95927.34
2023-03-26T12:28:03.819Z,95933.16
2023-03-26T12:33:15.120Z,95927.28
2023-03-26T12:38:35.486Z,95940.06
2023-03-26T12:44:55.341Z,95941.03
2023-03-26T12:49:08.635Z,95952.97
2023-03-26T12:54:35.969Z,95964.81
2023-03-26T13:00:12.914Z,95919.19
2023-03-26T13:05:19.474Z,95911.91
2023-03-26T13:10:45.431Z,95909.53
2023-03-26T13:15:53.786Z,95908.41
2023-03-26T13:21:33.004Z,95896.34
2023-03-26T13:27:12.416Z,95877.53
2023-03-26T13:32:45.389Z,95862.72
2023-03-26T13:37:59.283Z,95863.22
2023-03-26T13:43:19.282Z,95862.03
2023-03-26T13:48:39.408Z,95855.63
2023-03-26T13:53:54.525Z,95845.59
2023-03-26T13:59:12.178Z,95842.63
2023-03-26T14:04:33.668Z,95824.97
2023-03-26T14:09:51.198Z,95839.97
2023-03-26T14:14:59.823Z,95819.72
2023-03-26T14:20:22.754Z,95798.72
2023-03-26T14:25:36.886Z,95787.84
2023-03-26T14:31:14.479Z,95787.84
2023-03-26T14:36:28.812Z,95782.13
2023-03-26T14:41:53.652Z,95786.78
2023-03-26T14:47:14.829Z,95784.09
2023-03-26T14:52:46.233Z,95777.19
2023-03-26T14:57:57.151Z,95767.41
2023-03-26T15:03:38.624Z,95741.09
2023-03-26T15:09:11.009Z,95749.13
2023-03-26T15:14:44.233Z,95749.19
2023-03-26T15:19:57.899Z,95766.69
2023-03-26T15:25:21.867Z,95771.75
2023-03-26T15:30:36.666Z,95775.50
2023-03-26T15:35:57.733Z,95777.09
2023-03-26T15:41:30.885Z,95781.69
2023-03-26T15:46:59.319Z,95771.88
2023-03-26T15:52:16.982Z,95775.34
2023-03-26T15:57:42.727Z,95771.31
2023-03-26T16:03:11.417Z,95782.94
2023-03-26T16:08:30.659Z,95783.97
2023-03-26T16:13:36.689Z,95779.38
2023-03-26T16:18:48.382Z,95770.53
2023-03-26T16:24:12.071Z,95772.03
2023-03-26T16:29:17.983Z,95774.69
2023-03-26T16:34:26.214Z,95774.94
2023-03-26T16:39:42.219Z,95771.53
2023-03-26T16:44:49.318Z,95779.03
2023-03-26T16:50:08.418Z,95762.22
2023-03-26T16:55:35.140Z,95753.78
2023-03-26T17:00:52.367Z,95736.44
2023-03-26T17:05:54.171Z,95738.28
2023-03-26T17:11:03.529Z,95726.44
2023-03-26T17:16:14.540Z,95715.72
2023-03-26T17:21:46.087Z,95719.00
2023-03-26T17:26:55.270Z,95727.72
2023-03-26T17:32:09.150Z,95727.13
2023-03-26T17:37:16.927Z,95737.19
2023-03-26T17:42:26.680Z,95739.00
2023-03-26T17:47:38.217Z,95743.28
2023-03-26T17:53:01.279Z,95741.66
2023-03-26T17:58:06.289Z,95742.88
2023-03-26T18:03:19.131Z,95750.38
2023-03-26T18:09:16.616Z,95754.31
2023-03-26T18:14:42.588Z,95752.69
2023-03-26T18:19:49.786Z,95768.00
2023-03-26T18:24:56.026Z,95776.50
2023-03-26T18:30:02.123Z,95784.50
2023-03-26T18:35:20.328Z,95786.59
2023-03-26T18:40:24.755Z,95792.75
2023-03-26T18:45:47.128Z,95804.56
2023-03-26T18:51:00.375Z,95803.34
2023-03-26T18:56:35.255Z,95825.00
2023-03-26T19:01:38.057Z,95820.47
2023-03-26T19:06:42.196Z,95822.97
2023-03-26T19:11:45.337Z,95824.38
2023-03-26T19:16:56.180Z,95840.69
2023-03-26T19:21:59.551Z,95844.44
2023-03-26T19:27:02.596Z,95821.56
2023-03-26T19:32:18.176Z,95851.44
2023-03-26T19:37:22.770Z,95850.09
2023-03-26T19:42:43.467Z,95838.19
2023-03-26T19:47:50.520Z,95852.34
2023-03-26T19:53:19.394Z,95846.94
2023-03-26T19:58:21.485Z,95857.34
2023-03-26T20:03:46.183Z,95855.09
2023-03-26T20:08:52.117Z,95855.69
2023-03-26T20:13:53.834Z,95854.34
2023-03-26T20:18:57.195Z,95854.56
2023-03-26T20:23:59.575Z,95867.03
2023-03-26T20:29:01.479Z,95866.41
2023-03-26T20:34:03.443Z,95869.16
2023-03-26T20:39:08.427Z,95865.91
2023-03-26T20:44:16.615Z,95878.41
2023-03-26T20:49:18.739Z,95875.50
2023-03-26T20:54:23.669Z,95870.59
2023-03-26T20:59:27.409Z,95873.94
2023-03-26T21:04:29.320Z,95871.50
2023-03-26T21:09:35.104Z,95864.97
2023-03-26T21:14:41.437Z,95870.91
2023-03-26T21:19:44.135Z,95869.88
2023-03-26T21:25:01.107Z,95873.16
2023-03-26T21:30:06.170Z,95872.69
2023-03-26T21:35:08.757Z,95874.00
2023-03-26T21:40:16.354Z,95876.19
2023-03-26T21:45:19.291Z,95871.09
2023-03-26T21:50:22.796Z,95866.69
2023-03-26T21:55:25.054Z,95873.75
2023-03-26T22:00:41.153Z,95875.41
2023-03-26T22:05:53.588Z,95875.16
2023-03-26T22:10:55.766Z,95875.72
2023-03-26T22:15:57.822Z,95875.72
2023-03-26T22:21:00.013Z,95879.53
2023-03-26T22:26:03.080Z,95893.50
2023-03-26T22:31:08.396Z,95883.47
2023-03-26T22:36:23.493Z,95895.19
2023-03-26T22:41:26.128Z,95881.03
2023-03-26T22:46:28.792Z,95882.28
2023-03-26T22:51:30.911Z,95883.66
2023-03-26T22:56:32.793Z,95874.09
2023-03-26T23:01:34.708Z,95881.16
2023-03-26T23:06:36.587Z,95877.66
2023-03-26T23:11:39.369Z,95870.06
2023-03-26T23:16:42.279Z,95873.41
2023-03-26T23:21:44.029Z,95873.41
2023-03-26T23:26:50.548Z,95879.97
2023-03-26T23:31:54.573Z,95880.53
2023-03-26T23:36:57.961Z,95876.22
2023-03-26T23:41:59.761Z,95870.81
2023-03-26T23:47:01.426Z,95874.91
2023-03-26T23:52:05.154Z,95867.91
2023-03-26T23:57:07.572Z,95872.59
